Time;durP1;ratioP1;P1;durP2;ratioP2;P2;SDS_P1;SDS_P2;PMS_P1;PMS_P2;Temp;Humidity;BMP_temperature;BMP_pressure;BME280_temperature;BME280_humidity;BME280_pressure;Samples;Min_cycle;Max_cycle;Signal;HPM_P1;HPM_P2
2022/02/13 00:01:10;;;;;;;72.70;30.70;;;;;;;-3.49;78.06;99733.75;105842;1281;137857;-70
2022/02/13 00:03:37;;;;;;;73.40;31.70;;;;;;;-3.54;77.93;99734.58;106027;1280;22581;-70
2022/02/13 00:06:04;;;;;;;76.20;31.20;;;;;;;-3.60;77.24;99734.70;105695;1280;22633;-70
2022/02/13 00:08:31;;;;;;;72.00;29.90;;;;;;;-3.63;77.69;99733.79;105806;1280;138365;-71
2022/02/13 00:10:58;;;;;;;65.60;28.10;;;;;;;-3.64;77.34;99732.43;105805;1279;24105;-72
2022/02/13 00:13:25;;;;;;;72.00;31.40;;;;;;;-3.63;77.17;99729.21;105655;1281;137882;-70
2022/02/13 00:15:52;;;;;;;76.50;30.90;;;;;;;-3.64;78.07;99728.95;105956;1281;22566;-69
2022/02/13 00:18:20;;;;;;;77.00;31.30;;;;;;;-3.62;78.11;99720.46;105725;1280;138265;-69
2022/02/13 00:20:46;;;;;;;73.60;30.20;;;;;;;-3.59;78.49;99719.88;106465;1280;25309;-70
2022/02/13 00:23:13;;;;;;;72.20;31.80;;;;;;;-3.59;78.23;99716.84;105944;1280;25277;-70
2022/02/13 00:25:42;;;;;;;70.00;31.90;;;;;;;-3.60;77.84;99712.33;105805;1281;138611;-70
2022/02/13 00:28:12;;;;;;;74.70;31.60;;;;;;;-3.61;77.99;99711.66;105933;1281;22583;-70
2022/02/13 00:30:39;;;;;;;76.90;32.30;;;;;;;-3.66;78.32;99708.89;105701;1281;138182;-70
2022/02/13 00:33:06;;;;;;;98.90;37.70;;;;;;;-3.71;79.37;99711.93;106056;1281;25471;-70
2022/02/13 00:35:33;;;;;;;76.60;32.70;;;;;;;-3.74;79.68;99709.91;106024;1280;23550;-70
2022/02/13 00:38:00;;;;;;;75.70;32.40;;;;;;;-3.76;79.99;99709.69;105813;1280;137944;-70
2022/02/13 00:40:29;;;;;;;64.30;29.60;;;;;;;-3.74;80.50;99703.70;106102;1280;22563;-70
2022/02/13 00:42:56;;;;;;;75.60;30.70;;;;;;;-3.72;79.75;99702.09;105862;1279;138628;-70
2022/02/13 00:45:23;;;;;;;68.20;29.90;;;;;;;-3.72;79.28;99701.55;105860;1280;23974;-69
2022/02/13 00:47:50;;;;;;;65.50;29.10;;;;;;;-3.73;79.09;99697.02;105939;1280;22632;-70
2022/02/13 00:50:17;;;;;;;68.10;28.70;;;;;;;-3.75;78.49;99692.74;105821;1281;137818;-70
2022/02/13 00:52:44;;;;;;;69.90;30.20;;;;;;;-3.76;78.59;99693.55;105975;1281;22553;-70
2022/02/13 00:55:11;;;;;;;73.20;28.50;;;;;;;-3.81;77.80;99687.54;105885;1281;138053;-70
2022/02/13 00:57:38;;;;;;;69.50;29.40;;;;;;;-3.87;78.23;99686.98;106006;1279;24439;-70
2022/02/13 01:00:06;;;;;;;69.00;29.30;;;;;;;-3.92;78.23;99686.48;106056;1280;25255;-70
2022/02/13 01:02:33;;;;;;;65.80;29.60;;;;;;;-3.97;78.03;99683.14;106048;1280;137887;-70
2022/02/13 01:05:01;;;;;;;79.20;35.80;;;;;;;-4.02;77.72;99685.27;106123;1279;24231;-70
2022/02/13 01:07:28;;;;;;;74.40;34.80;;;;;;;-4.07;79.05;99680.70;105964;1279;138533;-70
2022/02/13 01:09:56;;;;;;;80.80;34.70;;;;;;;-4.10;79.11;99677.42;105909;1280;24387;-70
2022/02/13 01:12:23;;;;;;;87.30;34.30;;;;;;;-4.12;79.72;99674.40;105831;1281;137961;-70
2022/02/13 01:14:50;;;;;;;74.50;32.70;;;;;;;-4.15;80.10;99671.41;105880;1280;23922;-70
2022/02/13 01:17:17;;;;;;;78.00;31.50;;;;;;;-4.13;80.01;99665.61;106055;1281;24499;-70
2022/02/13 01:19:44;;;;;;;70.70;32.20;;;;;;;-4.13;80.01;99668.97;105879;1279;137913;-70
2022/02/13 01:22:10;;;;;;;64.60;29.40;;;;;;;-4.14;79.98;99668.70;106095;1280;22554;-70
2022/02/13 01:24:37;;;;;;;74.30;30.10;;;;;;;-4.14;79.78;99666.25;105836;1280;139556;-69
2022/02/13 01:27:04;;;;;;;81.20;35.20;;;;;;;-4.16;79.26;99661.55;106004;1280;22548;-72
2022/02/13 01:29:31;;;;;;;88.80;36.40;;;;;;;-4.19;79.78;99657.05;106096;1279;24998;-72
2022/02/13 01:31:58;;;;;;;100.50;39.70;;;;;;;-4.27;80.02;99659.76;106010;1281;137619;-72
2022/02/13 01:34:27;;;;;;;104.40;41.70;;;;;;;-4.33;80.38;99661.68;105968;1281;22779;-71
2022/02/13 01:36:54;;;;;;;96.20;40.20;;;;;;;-4.36;80.64;99652.18;105665;1281;137727;-70
2022/02/13 01:39:22;;;;;;;84.20;35.60;;;;;;;-4.38;80.46;99649.63;106056;1280;22662;-69
2022/02/13 01:41:50;;;;;;;96.70;39.20;;;;;;;-4.34;80.87;99641.75;105984;1279;22853;-69
2022/02/13 01:44:32;;;;;;;84.20;34.80;;;;;;;-4.34;80.18;99641.71;105851;1280;138187;-70
2022/02/13 01:47:00;;;;;;;94.90;36.40;;;;;;;-4.37;80.84;99635.38;106036;1280;23007;-70
2022/02/13 01:49:28;;;;;;;85.80;36.20;;;;;;;-4.42;81.19;99634.84;106034;1280;138130;-69
2022/02/13 01:52:01;;;;;;;76.70;33.10;;;;;;;-4.45;81.27;99632.06;105950;1281;22565;-69
2022/02/13 01:54:28;;;;;;;77.70;32.10;;;;;;;-4.46;81.28;99623.33;105761;1282;140228;-70
2022/02/13 01:56:56;;;;;;;77.60;33.60;;;;;;;-4.47;80.95;99620.73;106048;1279;25381;-70
2022/02/13 01:59:23;;;;;;;98.90;39.10;;;;;;;-4.51;81.07;99622.46;106055;1280;25372;-70
2022/02/13 02:01:51;;;;;;;87.40;36.10;;;;;;;-4.57;81.12;99617.83;105840;1280;138201;-69
2022/02/13 02:04:18;;;;;;;89.20;36.70;;;;;;;-4.61;81.46;99614.70;106040;1279;22638;-70
2022/02/13 02:06:45;;;;;;;87.10;35.30;;;;;;;-4.60;81.88;99617.83;105788;1280;137891;-70
2022/02/13 02:09:12;;;;;;;85.40;34.80;;;;;;;-4.62;81.81;99624.01;105869;1280;22569;-70
2022/02/13 02:11:39;;;;;;;85.00;36.50;;;;;;;-4.64;82.62;99616.05;105904;1280;22586;-69
2022/02/13 02:14:06;;;;;;;77.90;32.70;;;;;;;-4.65;82.69;99611.88;105913;1279;141119;-70
2022/02/13 02:16:33;;;;;;;80.50;35.00;;;;;;;-4.61;82.80;99604.84;105962;1279;25349;-70
2022/02/13 02:19:00;;;;;;;79.30;32.40;;;;;;;-4.57;82.57;99602.21;105913;1279;138476;-70
2022/02/13 02:21:27;;;;;;;73.50;32.10;;;;;;;-4.55;82.48;99600.10;105998;1279;22540;-69
2022/02/13 02:23:54;;;;;;;77.60;31.80;;;;;;;-4.53;82.61;99602.12;106259;1280;25268;-69
2022/02/13 02:26:21;;;;;;;80.20;34.30;;;;;;;-4.54;82.74;99601.48;105824;1279;137569;-69
2022/02/13 02:28:48;;;;;;;82.80;34.30;;;;;;;-4.54;82.72;99592.23;106013;1280;25319;-71
2022/02/13 02:31:15;;;;;;;69.70;31.40;;;;;;;-4.54;82.88;99592.27;105886;1280;138554;-69
2022/02/13 02:33:42;;;;;;;66.90;29.90;;;;;;;-4.55;82.31;99584.55;105739;1279;25106;-70
2022/02/13 02:36:19;;;;;;;76.40;31.70;;;;;;;-4.54;83.22;99583.76;105724;1281;24276;-70
2022/02/13 02:38:47;;;;;;;83.00;32.10;;;;;;;-4.52;83.14;99577.21;105975;1279;137640;-70
2022/02/13 02:41:15;;;;;;;87.40;35.50;;;;;;;-4.54;82.79;99575.08;105895;1280;22585;-71
2022/02/13 02:43:43;;;;;;;78.00;32.20;;;;;;;-4.58;82.71;99577.10;106016;1279;138146;-71
2022/02/13 02:46:12;;;;;;;79.40;32.40;;;;;;;-4.59;83.10;99570.63;105620;1280;22560;-72
2022/02/13 02:48:40;;;;;;;70.70;30.70;;;;;;;-4.56;83.40;99576.43;105614;1280;139087;-69
2022/02/13 02:51:07;;;;;;;70.30;28.20;;;;;;;-4.52;83.28;99576.52;105904;1280;22572;-69
2022/02/13 02:53:34;;;;;;;71.20;29.70;;;;;;;-4.49;83.26;99570.58;106103;1281;22551;-71
2022/02/13 02:56:02;;;;;;;69.00;29.00;;;;;;;-4.47;83.06;99567.08;106067;1281;137628;-70
2022/02/13 02:58:29;;;;;;;64.20;28.40;;;;;;;-4.46;82.66;99561.14;105756;1281;23412;-69
2022/02/13 03:00:56;;;;;;;67.80;28.40;;;;;;;-4.45;82.28;99562.08;105772;1280;138181;-69
2022/02/13 03:03:24;;;;;;;68.10;28.50;;;;;;;-4.48;81.95;99556.98;106090;1279;22601;-69
2022/02/13 03:05:52;;;;;;;69.00;28.70;;;;;;;-4.49;81.67;99555.90;106036;1279;24427;-69
2022/02/13 03:08:20;;;;;;;71.50;29.80;;;;;;;-4.49;81.85;99557.13;105832;1280;139737;-71
2022/02/13 03:10:48;;;;;;;72.80;31.00;;;;;;;-4.52;81.82;99553.45;106035;1280;22673;-71
2022/02/13 03:13:16;;;;;;;67.90;31.10;;;;;;;-4.54;82.01;99549.91;105818;1281;137957;-69
2022/02/13 03:15:44;;;;;;;72.00;30.40;;;;;;;-4.58;81.47;99550.59;106010;1281;22646;-70
2022/02/13 03:18:11;;;;;;;86.10;35.10;;;;;;;-4.64;81.95;99551.21;106032;1279;24277;-71
2022/02/13 03:20:39;;;;;;;83.10;35.20;;;;;;;-4.70;81.66;99547.23;105901;1281;137654;-70
2022/02/13 03:23:06;;;;;;;84.00;35.10;;;;;;;-4.77;81.63;99545.31;106126;1279;23960;-70
2022/02/13 03:25:33;;;;;;;73.10;31.40;;;;;;;-4.80;82.02;99545.89;105884;1280;137933;-70
2022/02/13 03:28:00;;;;;;;66.00;30.00;;;;;;;-4.79;82.61;99544.76;105943;1279;22551;-70
2022/02/13 03:30:27;;;;;;;71.30;29.10;;;;;;;-4.75;82.40;99545.15;105806;1279;138575;-71
2022/02/13 03:32:54;;;;;;;69.20;29.30;;;;;;;-4.72;82.20;99542.12;106067;1280;24257;-69
2022/02/13 03:35:35;;;;;;;68.10;27.20;;;;;;;-4.72;81.91;99536.21;106068;1279;22670;-69
2022/02/13 03:38:04;;;;;;;67.20;29.60;;;;;;;-4.74;82.05;99530.55;106160;1281;137668;-69
2022/02/13 03:40:31;;;;;;;72.50;29.90;;;;;;;-4.76;81.96;99532.82;105932;1281;24235;-69
2022/02/13 03:42:59;;;;;;;69.70;28.70;;;;;;;-4.78;81.92;99535.97;106269;1279;138372;-69
2022/02/13 03:45:26;;;;;;;67.80;30.00;;;;;;;-4.82;82.11;99536.13;106290;1280;22560;-69
2022/02/13 03:47:53;;;;;;;60.30;26.30;;;;;;;-4.82;82.45;99532.52;105951;1279;22696;-70
2022/02/13 03:50:20;;;;;;;61.30;25.50;;;;;;;-4.79;82.39;99532.99;105898;1280;138453;-69
2022/02/13 03:52:47;;;;;;;70.80;27.90;;;;;;;-4.73;82.69;99529.76;105866;1280;22593;-69
2022/02/13 03:55:16;;;;;;;64.60;26.80;;;;;;;-4.68;82.31;99532.20;105880;1281;137856;-69
2022/02/13 03:57:43;;;;;;;73.60;31.60;;;;;;;-4.70;82.03;99525.79;106106;1281;25260;-70
2022/02/13 04:00:15;;;;;;;71.40;31.10;;;;;;;-4.71;82.20;99525.36;105933;1281;22548;-69
2022/02/13 04:02:42;;;;;;;70.60;31.70;;;;;;;-4.74;82.25;99523.30;105931;1280;138157;-69
2022/02/13 04:05:10;;;;;;;60.30;29.40;;;;;;;-4.80;81.92;99523.89;105936;1279;25534;-69
2022/02/13 04:07:39;;;;;;;76.10;32.80;;;;;;;-4.84;81.83;99523.35;105990;1279;139400;-69
2022/02/13 04:10:07;;;;;;;70.80;32.50;;;;;;;-4.90;82.26;99523.27;106108;1281;22553;-69
2022/02/13 04:12:35;;;;;;;73.10;30.60;;;;;;;-4.90;82.73;99519.94;105964;1280;137811;-69
2022/02/13 04:15:16;;;;;;;72.90;31.20;;;;;;;-4.90;82.62;99517.66;106325;1280;22556;-72
2022/02/13 04:17:44;;;;;;;71.00;29.20;;;;;;;-4.90;82.58;99514.81;106262;1280;24235;-69
2022/02/13 04:20:11;;;;;;;63.30;29.10;;;;;;;-4.89;82.25;99517.73;105651;1280;138351;-68
2022/02/13 04:22:38;;;;;;;61.60;25.90;;;;;;;-4.89;82.15;99507.80;105932;1279;25347;-72
2022/02/13 04:25:06;;;;;;;56.40;26.60;;;;;;;-4.89;81.87;99503.55;105817;1281;138706;-69
2022/02/13 04:27:35;;;;;;;56.30;26.50;;;;;;;-4.90;81.82;99505.27;105898;1281;23248;-69
2022/02/13 04:30:06;;;;;;;74.30;30.70;;;;;;;-4.94;82.09;99503.09;105812;1279;22558;-70
2022/02/13 04:32:34;;;;;;;79.20;31.90;;;;;;;-4.96;82.38;99498.26;105739;1280;138083;-69
2022/02/13 04:35:01;;;;;;;62.70;27.90;;;;;;;-4.97;82.74;99492.82;106020;1280;22585;-69
2022/02/13 04:37:28;;;;;;;60.60;27.10;;;;;;;-4.97;82.84;99486.49;105658;1280;138038;-69
2022/02/13 04:39:55;;;;;;;59.30;28.00;;;;;;;-4.97;82.63;99484.51;105961;1280;22673;-71
2022/02/13 04:42:22;;;;;;;49.80;22.60;;;;;;;-4.94;82.20;99477.93;105945;1280;24273;-69
2022/02/13 04:44:49;;;;;;;53.90;24.30;;;;;;;-4.90;82.37;99477.98;105785;1280;137851;-69
2022/02/13 04:47:16;;;;;;;56.80;24.80;;;;;;;-4.84;82.56;99478.19;105824;1281;22578;-69
2022/02/13 04:49:43;;;;;;;54.40;24.00;;;;;;;-4.82;81.86;99473.23;105857;1281;137771;-69
2022/02/13 04:52:10;;;;;;;60.00;28.80;;;;;;;-4.81;81.62;99474.95;105879;1281;22608;-69
2022/02/13 04:54:37;;;;;;;73.00;30.10;;;;;;;-4.85;81.64;99468.55;105754;1279;138760;-69
2022/02/13 04:57:04;;;;;;;74.10;32.90;;;;;;;-4.91;82.14;99467.80;106022;1280;25272;-69
2022/02/13 04:59:33;;;;;;;73.90;34.10;;;;;;;-4.98;81.97;99467.42;106020;1280;24544;-69
2022/02/13 05:02:01;;;;;;;64.10;30.30;;;;;;;-5.05;81.65;99460.34;105830;1280;139307;-69
2022/02/13 05:04:28;;;;;;;57.70;27.30;;;;;;;-5.05;82.10;99458.64;106009;1278;25375;-69
2022/02/13 05:06:55;;;;;;;61.60;26.00;;;;;;;-5.03;82.17;99454.34;105788;1281;138260;-69
2022/02/13 05:09:22;;;;;;;61.30;27.70;;;;;;;-5.01;82.15;99448.20;105872;1279;24401;-70
2022/02/13 05:11:49;;;;;;;53.80;23.90;;;;;;;-5.01;82.22;99448.38;106028;1281;22574;-69
2022/02/13 05:14:16;;;;;;;54.20;25.50;;;;;;;-5.00;82.47;99447.53;105739;1280;138012;-70
2022/02/13 05:16:43;;;;;;;71.80;30.00;;;;;;;-5.01;81.98;99448.33;106039;1280;25334;-69
2022/02/13 05:19:10;;;;;;;72.60;34.60;;;;;;;-5.04;82.10;99446.63;105972;1280;138529;-69
2022/02/13 05:21:37;;;;;;;68.00;29.70;;;;;;;-5.05;82.49;99452.23;106199;1280;22718;-70
2022/02/13 05:24:04;;;;;;;62.20;27.70;;;;;;;-5.02;82.23;99450.55;106412;1280;22535;-70
2022/02/13 05:26:31;;;;;;;72.10;30.60;;;;;;;-5.05;82.08;99452.22;106142;1281;138330;-70
2022/02/13 05:28:58;;;;;;;61.80;28.50;;;;;;;-5.07;82.59;99450.57;106023;1279;23324;-70
2022/02/13 05:31:29;;;;;;;65.50;27.30;;;;;;;-5.08;82.13;99447.28;105878;1279;137789;-70
2022/02/13 05:34:00;;;;;;;60.70;25.50;;;;;;;-5.07;82.24;99452.05;105928;1280;23281;-71
2022/02/13 05:36:28;;;;;;;68.70;29.50;;;;;;;-5.07;81.96;99444.20;105870;1280;138102;-70
2022/02/13 05:38:55;;;;;;;67.20;28.60;;;;;;;-5.10;81.74;99441.44;106141;1280;22993;-70
2022/02/13 05:41:23;;;;;;;76.00;36.10;;;;;;;-5.20;81.95;99439.02;106012;1280;22561;-70
2022/02/13 05:43:50;;;;;;;66.60;32.50;;;;;;;-5.25;82.39;99434.33;106211;1280;138385;-70
2022/02/13 05:46:17;;;;;;;63.00;30.20;;;;;;;-5.25;82.37;99433.03;106057;1281;22798;-70
2022/02/13 05:48:45;;;;;;;69.60;29.40;;;;;;;-5.25;82.15;99434.27;106007;1281;138298;-70
2022/02/13 05:51:14;;;;;;;64.30;28.20;;;;;;;-5.26;82.62;99434.37;106048;1281;23015;-70
2022/02/13 05:53:40;;;;;;;73.80;29.80;;;;;;;-5.28;82.90;99428.68;105978;1281;24746;-69
2022/02/13 05:56:08;;;;;;;65.50;28.70;;;;;;;-5.28;83.16;99424.62;105773;1280;137989;-71
2022/02/13 05:58:39;;;;;;;67.40;29.10;;;;;;;-5.25;83.21;99424.93;106146;1280;23383;-70
2022/02/13 06:01:06;;;;;;;57.70;27.70;;;;;;;-5.22;82.89;99424.52;105732;1283;139468;-70
2022/02/13 06:03:33;;;;;;;57.10;25.90;;;;;;;-5.17;83.37;99423.23;106122;1280;25263;-70
2022/02/13 06:06:00;;;;;;;58.70;26.00;;;;;;;-5.09;83.28;99421.21;105791;1281;23018;-70
2022/02/13 06:08:30;;;;;;;58.50;24.80;;;;;;;-5.03;83.31;99416.98;105971;1281;137595;-69
2022/02/13 06:10:57;;;;;;;62.10;28.30;;;;;;;-4.98;82.93;99413.80;105895;1281;25300;-70
2022/02/13 06:13:24;;;;;;;58.60;26.20;;;;;;;-4.94;82.92;99412.75;105805;1281;137756;-69
2022/02/13 06:15:51;;;;;;;55.80;26.40;;;;;;;-4.92;82.35;99411.17;106002;1280;23522;-70
2022/02/13 06:18:18;;;;;;;60.30;27.70;;;;;;;-4.90;82.50;99407.34;105827;1281;22576;-70
2022/02/13 06:20:45;;;;;;;55.10;25.90;;;;;;;-4.88;82.41;99399.88;105942;1280;138391;-70
2022/02/13 06:23:13;;;;;;;53.10;23.70;;;;;;;-4.84;82.22;99392.47;106188;1280;22551;-70
2022/02/13 06:25:40;;;;;;;61.60;25.40;;;;;;;-4.79;82.27;99389.59;106319;1280;137779;-70
2022/02/13 06:28:07;;;;;;;72.60;31.30;;;;;;;-4.77;82.06;99393.69;106063;1279;24263;-70
2022/02/13 06:30:34;;;;;;;85.40;37.30;;;;;;;-4.75;82.19;99392.60;105687;1281;138322;-70
2022/02/13 06:33:03;;;;;;;89.00;38.50;;;;;;;-4.73;82.91;99389.29;105966;1281;22592;-70
2022/02/13 06:35:31;;;;;;;86.80;37.10;;;;;;;-4.73;82.41;99388.92;106008;1280;22563;-69
2022/02/13 06:38:01;;;;;;;81.20;38.70;;;;;;;-4.72;82.44;99385.69;105981;1280;138515;-70
2022/02/13 06:40:29;;;;;;;94.50;43.10;;;;;;;-4.73;82.30;99379.42;106048;1280;25318;-70
2022/02/13 06:42:56;;;;;;;85.10;37.10;;;;;;;-4.78;82.19;99378.35;105960;1280;138663;-69
2022/02/13 06:45:24;;;;;;;81.00;34.10;;;;;;;-4.79;82.73;99371.66;106207;1280;24297;-69
2022/02/13 06:47:52;;;;;;;56.50;24.10;;;;;;;-4.74;82.94;99367.63;105939;1281;22655;-70
2022/02/13 06:50:19;;;;;;;57.80;24.90;;;;;;;-4.70;82.91;99363.51;106126;1281;138379;-70
2022/02/13 06:52:46;;;;;;;52.70;23.20;;;;;;;-4.63;82.77;99358.34;105911;1281;22553;-69
2022/02/13 06:55:14;;;;;;;50.90;22.10;;;;;;;-4.55;82.64;99359.66;105912;1280;137860;-70
2022/02/13 06:57:46;;;;;;;96.80;40.70;;;;;;;-4.48;82.49;99362.94;105969;1280;24355;-70
2022/02/13 07:00:15;;;;;;;120.20;52.70;;;;;;;-4.45;82.14;99368.04;105976;1280;24238;-70
2022/02/13 07:02:43;;;;;;;;;;;;;;;-4.45;82.23;99359.67;106163;1280;139057;-70
2022/02/13 07:05:10;;;;;;;112.10;52.20;;;;;;;-4.41;81.91;99357.40;106180;1280;23241;-70
2022/02/13 07:07:38;;;;;;;122.30;52.80;;;;;;;-4.39;81.97;99353.93;106051;1281;138372;-70
2022/02/13 07:10:07;;;;;;;113.20;47.60;;;;;;;-4.39;82.08;99354.40;106077;1281;22732;-70
2022/02/13 07:12:35;;;;;;;109.40;43.90;;;;;;;-4.41;82.00;99353.84;105910;1281;138060;-70
2022/02/13 07:15:03;;;;;;;114.60;45.80;;;;;;;-4.45;82.11;99354.52;105928;1281;22571;-70
2022/02/13 07:17:30;;;;;;;111.00;42.80;;;;;;;-4.46;82.62;99349.81;106111;1280;25163;-70
2022/02/13 07:19:56;;;;;;;101.80;44.10;;;;;;;-4.43;83.19;99346.08;105931;1280;138123;-70
2022/02/13 07:22:24;;;;;;;90.00;38.70;;;;;;;-4.36;83.06;99347.42;106207;1279;22550;-70
2022/02/13 07:24:51;;;;;;;76.60;32.40;;;;;;;-4.23;83.50;99341.77;105806;1279;138581;-70
2022/02/13 07:27:18;;;;;;;74.30;32.30;;;;;;;-4.09;83.59;99341.98;106024;1280;24236;-70
2022/02/13 07:29:45;;;;;;;71.50;28.10;;;;;;;-3.96;83.14;99345.37;106017;1281;22548;-70
2022/02/13 07:32:12;;;;;;;81.60;34.70;;;;;;;-3.88;83.40;99337.20;105861;1281;137705;-70
2022/02/13 07:34:40;;;;;;;78.10;33.00;;;;;;;-3.78;83.53;99339.56;105986;1281;22552;-70
2022/02/13 07:37:07;;;;;;;68.70;29.30;;;;;;;-3.68;83.68;99337.83;105913;1280;137845;-70
2022/02/13 07:39:35;;;;;;;68.80;28.40;;;;;;;-3.60;83.43;99342.10;106152;1279;22578;-70
2022/02/13 07:42:03;;;;;;;77.10;35.40;;;;;;;-3.53;83.51;99338.86;106020;1279;25596;-70
2022/02/13 07:44:30;;;;;;;78.10;35.00;;;;;;;-3.44;84.12;99338.77;105989;1280;138515;-70
2022/02/13 07:46:57;;;;;;;66.10;31.30;;;;;;;-3.33;83.42;99335.13;106073;1280;22560;-70
2022/02/13 07:49:24;;;;;;;74.70;33.50;;;;;;;-3.20;83.57;99337.02;105687;1281;138182;-70
2022/02/13 07:51:51;;;;;;;58.50;25.90;;;;;;;-3.07;83.64;99330.89;105776;1281;24075;-69
2022/02/13 07:54:18;;;;;;;64.10;27.50;;;;;;;-2.95;83.27;99328.39;105772;1281;22605;-69
2022/02/13 07:56:45;;;;;;;52.60;24.00;;;;;;;-2.80;83.49;99328.36;105803;1280;137499;-69
2022/02/13 07:59:12;;;;;;;51.30;24.90;;;;;;;-2.67;83.24;99327.14;106023;1280;23334;-71
2022/02/13 08:01:39;;;;;;;53.80;22.70;;;;;;;-2.54;82.80;99324.41;106220;1280;137892;-69
2022/02/13 08:04:06;;;;;;;44.90;21.90;;;;;;;-2.41;82.51;99325.02;106068;1280;22593;-69
2022/02/13 08:06:33;;;;;;;35.40;16.60;;;;;;;-2.31;82.20;99323.02;106041;1280;137949;-69
2022/02/13 08:09:00;;;;;;;37.70;16.10;;;;;;;-2.22;81.01;99321.63;105988;1281;22550;-70
2022/02/13 08:11:27;;;;;;;29.10;15.90;;;;;;;-2.12;80.38;99317.48;106191;1280;22553;-70
2022/02/13 08:13:54;;;;;;;33.20;16.40;;;;;;;-2.03;79.56;99311.84;106002;1280;138120;-70
2022/02/13 08:16:22;;;;;;;33.10;16.20;;;;;;;-1.93;79.43;99310.08;105970;1280;25261;-70
2022/02/13 08:18:50;;;;;;;34.90;16.60;;;;;;;-1.84;78.86;99308.30;106195;1280;137805;-70
2022/02/13 08:21:17;;;;;;;28.50;13.60;;;;;;;-1.75;78.23;99307.65;106031;1280;23053;-70
2022/02/13 08:23:44;;;;;;;26.10;12.20;;;;;;;-1.67;77.72;99309.25;105904;1280;25268;-70
2022/02/13 08:26:11;;;;;;;25.40;14.30;;;;;;;-1.60;76.89;99308.19;105894;1280;138673;-70
2022/02/13 08:28:38;;;;;;;30.70;14.30;;;;;;;-1.51;76.40;99308.06;106146;1280;22609;-69
2022/02/13 08:31:05;;;;;;;32.30;15.60;;;;;;;-1.40;76.23;99310.15;105732;1281;138670;-69
2022/02/13 08:33:32;;;;;;;32.20;14.60;;;;;;;-1.27;76.14;99301.98;106078;1281;22635;-70
2022/02/13 08:35:59;;;;;;;30.30;14.60;;;;;;;-1.14;75.74;99302.88;105758;1281;22599;-69
2022/02/13 08:38:26;;;;;;;30.20;14.10;;;;;;;-1.02;75.54;99300.80;105994;1280;137695;-70
2022/02/13 08:40:53;;;;;;;29.10;15.10;;;;;;;-0.90;75.31;99302.70;106076;1280;23463;-70
2022/02/13 08:43:20;;;;;;;28.00;14.60;;;;;;;-0.80;74.79;99296.39;105825;1280;137970;-69
2022/02/13 08:46:02;;;;;;;30.30;14.80;;;;;;;-0.70;74.57;99292.89;106051;1280;22734;-70
2022/02/13 08:48:29;;;;;;;32.90;15.80;;;;;;;-0.60;74.27;99292.83;105927;1280;137776;-70
2022/02/13 08:50:56;;;;;;;29.80;14.50;;;;;;;-0.50;73.89;99289.69;105865;1281;22642;-70
2022/02/13 08:53:22;;;;;;;30.80;13.40;;;;;;;-0.42;73.38;99291.77;106132;1280;22719;-69
2022/02/13 08:55:50;;;;;;;29.30;14.40;;;;;;;-0.34;72.66;99285.78;105777;1279;138196;-70
2022/02/13 08:58:17;;;;;;;27.40;13.60;;;;;;;-0.26;72.35;99287.42;105962;1281;22584;-70
2022/02/13 09:00:44;;;;;;;30.80;14.90;;;;;;;-0.18;71.75;99286.98;105838;1281;137897;-69
2022/02/13 09:03:10;;;;;;;25.20;13.30;;;;;;;-0.09;71.76;99285.55;105767;1281;22594;-69
2022/02/13 09:05:37;;;;;;;25.80;13.80;;;;;;;-0.01;71.29;99286.27;105889;1281;22605;-70
2022/02/13 09:08:05;;;;;;;26.10;13.60;;;;;;;0.08;70.94;99281.64;105662;1281;137861;-70
2022/02/13 09:10:33;;;;;;;27.50;13.20;;;;;;;0.17;70.48;99282.57;105861;1281;24117;-70
2022/02/13 09:13:00;;;;;;;26.20;13.00;;;;;;;0.25;70.29;99284.96;105706;1281;137816;-70
2022/02/13 09:15:28;;;;;;;29.70;13.40;;;;;;;0.35;70.27;99281.43;105745;1281;25374;-70
2022/02/13 09:17:55;;;;;;;28.70;13.10;;;;;;;0.46;69.79;99286.21;105853;1281;24382;-70
2022/02/13 09:20:22;;;;;;;27.50;13.30;;;;;;;0.56;69.68;99283.71;105782;1281;137549;-72
2022/02/13 09:22:49;;;;;;;22.80;11.80;;;;;;;0.66;69.62;99284.82;106092;1280;22573;-72
2022/02/13 09:25:16;;;;;;;26.70;13.30;;;;;;;0.75;68.78;99278.64;106595;1280;137450;-72
2022/02/13 09:27:43;;;;;;;26.40;12.50;;;;;;;0.85;68.24;99277.80;105858;1281;23461;-72
2022/02/13 09:30:10;;;;;;;26.10;12.40;;;;;;;0.97;68.19;99271.71;106269;1280;22556;-71
2022/02/13 09:32:52;;;;;;;28.20;13.50;;;;;;;1.09;67.64;99272.05;106014;1281;137501;-71
2022/02/13 09:35:19;;;;;;;22.80;12.00;;;;;;;1.20;67.49;99270.16;106188;1280;25314;-71
2022/02/13 09:37:48;;;;;;;26.00;12.60;;;;;;;1.31;66.97;99268.30;106728;1280;137472;-71
2022/02/13 09:40:15;;;;;;;21.30;11.40;;;;;;;1.42;66.89;99266.21;106422;1281;25395;-71
2022/02/13 09:42:44;;;;;;;22.60;11.30;;;;;;;1.53;66.43;99267.99;106318;1281;138943;-71
2022/02/13 09:45:11;;;;;;;;;;;;;;;1.66;65.57;99268.75;105787;1281;25526;-69
2022/02/13 09:47:39;;;;;;;18.50;9.50;;;;;;;1.77;65.20;99268.63;107028;1280;22561;-70
2022/02/13 09:50:08;;;;;;;20.70;9.50;;;;;;;1.88;64.46;99263.62;106162;1280;564945;-69
2022/02/13 09:52:35;;;;;;;22.10;11.30;;;;;;;1.99;63.78;99265.52;107260;1281;22577;-69
2022/02/13 09:55:03;;;;;;;17.20;8.60;;;;;;;2.10;62.99;99265.35;106662;1281;137982;-69
2022/02/13 10:00:17;;;;;;;18.80;8.80;;;;;;;2.34;61.54;99264.29;105957;1280;25263;-69
2022/02/13 10:02:44;;;;;;;17.50;9.20;;;;;;;2.44;60.94;99263.52;105696;1281;137650;-69
2022/02/13 10:05:13;;;;;;;18.60;9.00;;;;;;;2.53;60.60;99256.81;105873;1281;22669;-70
2022/02/13 10:07:40;;;;;;;19.80;9.20;;;;;;;2.62;60.00;99255.67;105984;1281;137283;-70
2022/02/13 10:10:10;;;;;;;22.40;9.20;;;;;;;2.71;59.77;99246.39;105904;1281;25328;-69
2022/02/13 10:12:43;;;;;;;22.60;9.50;;;;;;;2.80;59.80;99241.90;105823;1281;137495;-69
2022/02/13 10:15:23;;;;;;;17.30;9.50;;;;;;;2.92;59.44;99240.90;105867;1279;23121;-71
2022/02/13 10:18:09;;;;;;;20.90;8.50;;;;;;;3.05;59.11;99236.56;105879;1281;24390;-70
2022/02/13 10:20:39;;;;;;;16.20;8.70;;;;;;;3.17;58.31;99229.42;105808;1281;137282;-71
2022/02/13 10:23:10;;;;;;;;;;;;;;;3.26;57.77;99226.61;106010;1281;24232;-71
2022/02/13 10:25:38;;;;;;;18.00;8.50;;;;;;;3.36;57.38;99221.30;105854;1281;123940;-72
2022/02/13 10:28:18;;;;;;;14.90;7.80;;;;;;;3.47;57.18;99213.06;106070;1280;23931;-70
2022/02/13 10:30:47;;;;;;;19.50;8.10;;;;;;;3.56;56.40;99209.83;106401;1280;137824;-71
2022/02/13 10:33:22;;;;;;;15.00;7.50;;;;;;;3.65;56.12;99202.81;106689;1281;23402;-70
2022/02/13 10:36:01;;;;;;;13.30;7.40;;;;;;;3.78;55.84;99200.04;105941;1281;23313;-70
2022/02/13 10:38:33;;;;;;;12.40;6.70;;;;;;;3.91;55.62;99194.40;106255;1280;137493;-70
2022/02/13 10:41:15;;;;;;;14.00;6.90;;;;;;;4.03;54.78;99189.75;106567;1281;22554;-70
2022/02/13 10:44:06;;;;;;;15.60;7.00;;;;;;;4.15;53.83;99190.64;106253;1279;137842;-70
2022/02/13 10:46:36;;;;;;;13.80;7.00;;;;;;;4.25;53.12;99187.95;106370;1281;22712;-70
2022/02/13 10:49:04;;;;;;;11.80;6.90;;;;;;;4.32;53.37;99180.66;106280;1281;137567;-70
2022/02/13 10:51:33;;;;;;;9.70;5.80;;;;;;;4.40;52.60;99172.84;106216;1280;22630;-71
2022/02/13 10:54:05;;;;;;;10.30;5.90;;;;;;;4.51;51.60;99169.01;106832;1280;22607;-70
2022/02/13 10:56:37;;;;;;;10.30;5.80;;;;;;;4.63;51.15;99168.73;106926;1281;137743;-70
2022/02/13 10:59:12;;;;;;;10.60;5.60;;;;;;;4.75;50.92;99161.86;106766;1281;22655;-70
2022/02/13 11:01:41;;;;;;;11.40;6.30;;;;;;;4.88;49.72;99153.83;106555;1280;138208;-71
2022/02/13 11:04:23;;;;;;;11.30;5.90;;;;;;;4.99;49.58;99149.80;106373;1278;24230;-71
2022/02/13 11:06:51;;;;;;;16.90;7.90;;;;;;;5.13;48.98;99154.44;106628;1281;140209;-71
2022/02/13 11:09:24;;;;;;;13.50;6.30;;;;;;;5.25;49.51;99150.47;106313;1281;22644;-70
2022/02/13 11:11:56;;;;;;;11.70;5.70;;;;;;;5.38;48.45;99141.27;106318;1281;22556;-71
2022/02/13 11:14:30;;;;;;;11.40;5.70;;;;;;;5.50;48.12;99141.42;106123;1280;137632;-71
2022/02/13 11:16:58;;;;;;;10.50;5.30;;;;;;;5.57;47.36;99143.76;106223;1280;22573;-71